createdAt,value
2023-04-20T00:00:11.804Z,1014.92
2023-04-20T00:01:11.561Z,1014.94
2023-04-20T00:02:11.598Z,1014.84
2023-04-20T00:03:11.683Z,1014.85
2023-04-20T00:04:11.560Z,1014.84
2023-04-20T00:05:11.536Z,1014.82
2023-04-20T00:06:11.515Z,1014.83
2023-04-20T00:07:11.489Z,1014.85
2023-04-20T00:08:11.470Z,1014.80
2023-04-20T00:09:11.463Z,1014.73
2023-04-20T00:10:11.474Z,1014.73
2023-04-20T00:11:11.446Z,1014.73
2023-04-20T00:12:11.421Z,1014.75
2023-04-20T00:13:11.418Z,1014.72
2023-04-20T00:14:11.409Z,1014.76
2023-04-20T00:15:11.395Z,1014.72
2023-04-20T00:16:11.429Z,1014.71
2023-04-20T00:17:11.482Z,1014.69
2023-04-20T00:18:11.373Z,1014.71
2023-04-20T00:19:11.348Z,1014.67
2023-04-20T00:20:11.348Z,1014.65
2023-04-20T00:21:11.353Z,1014.66
2023-04-20T00:22:11.321Z,1014.66
2023-04-20T00:23:11.306Z,1014.62
2023-04-20T00:24:11.296Z,1014.60
2023-04-20T00:25:11.299Z,1014.53
2023-04-20T00:26:11.269Z,1014.51
2023-04-20T00:27:11.286Z,1014.50
2023-04-20T00:28:11.264Z,1014.44
2023-04-20T00:29:11.241Z,1014.43
2023-04-20T00:30:11.241Z,1014.45
2023-04-20T00:31:11.256Z,1014.40
2023-04-20T00:32:11.222Z,1014.40
2023-04-20T00:33:11.218Z,1014.40
2023-04-20T00:34:11.186Z,1014.34
2023-04-20T00:35:11.181Z,1014.31
2023-04-20T00:36:11.154Z,1014.28
2023-04-20T00:37:11.145Z,1014.30
2023-04-20T00:38:11.173Z,1014.29
2023-04-20T00:39:11.184Z,1014.25
2023-04-20T00:40:11.107Z,1014.29
2023-04-20T00:41:11.099Z,1014.31
2023-04-20T00:42:11.086Z,1014.32
2023-04-20T00:43:11.119Z,1014.28
2023-04-20T00:44:11.065Z,1014.28
2023-04-20T00:45:11.054Z,1014.24
2023-04-20T00:46:11.082Z,1014.21
2023-04-20T00:47:11.033Z,1014.25
2023-04-20T00:48:11.027Z,1014.22
2023-04-20T00:49:11.082Z,1014.18
2023-04-20T00:50:11.011Z,1014.23
2023-04-20T00:51:10.986Z,1014.18
2023-04-20T00:52:10.990Z,1014.12
2023-04-20T00:53:10.976Z,1014.12
2023-04-20T00:54:10.969Z,1014.06
2023-04-20T00:55:10.945Z,1014.05
2023-04-20T00:56:10.934Z,1014.07
2023-04-20T00:57:10.918Z,1014.08
2023-04-20T00:58:10.940Z,1014.04
2023-04-20T00:59:17.898Z,1014.00
2023-04-20T01:00:11.003Z,1013.99
2023-04-20T01:01:10.909Z,1013.99
2023-04-20T01:02:10.935Z,1014.06
2023-04-20T01:03:10.974Z,1014.04
2023-04-20T01:04:10.904Z,1014.12
2023-04-20T01:05:10.828Z,1014.05
2023-04-20T01:06:10.834Z,1014.04
2023-04-20T01:07:10.808Z,1013.97
2023-04-20T01:08:10.798Z,1013.99
2023-04-20T01:09:10.789Z,1013.94
2023-04-20T01:10:10.789Z,1014.00
2023-04-20T01:11:10.781Z,1013.94
2023-04-20T01:12:10.753Z,1013.93
2023-04-20T01:13:10.739Z,1013.87
2023-04-20T01:14:10.739Z,1013.85
2023-04-20T01:15:10.727Z,1013.81
2023-04-20T01:16:10.740Z,1013.79
2023-04-20T01:17:10.712Z,1013.77
2023-04-20T01:18:10.693Z,1013.71
2023-04-20T01:19:10.668Z,1013.70
2023-04-20T01:20:10.668Z,1013.77
2023-04-20T01:21:10.669Z,1013.78
2023-04-20T01:22:10.661Z,1013.75
2023-04-20T01:23:10.633Z,1013.75
2023-04-20T01:24:10.614Z,1013.74
2023-04-20T01:25:10.621Z,1013.73
2023-04-20T01:26:10.620Z,1013.75
2023-04-20T01:27:10.582Z,1013.74
2023-04-20T01:28:10.579Z,1013.74
2023-04-20T01:29:10.563Z,1013.74
2023-04-20T01:30:10.559Z,1013.71
2023-04-20T01:31:10.656Z,1013.69
2023-04-20T01:32:10.533Z,1013.64
2023-04-20T01:33:10.597Z,1013.69
2023-04-20T01:34:10.512Z,1013.60
2023-04-20T01:35:10.513Z,1013.61
2023-04-20T01:36:10.504Z,1013.63
2023-04-20T01:37:10.493Z,1013.56
2023-04-20T01:38:10.482Z,1013.56
2023-04-20T01:39:10.480Z,1013.59
2023-04-20T01:40:10.449Z,1013.56
2023-04-20T01:41:10.453Z,1013.55
2023-04-20T01:42:10.465Z,1013.56
2023-04-20T01:43:10.408Z,1013.50
2023-04-20T01:44:10.410Z,1013.45
2023-04-20T01:45:10.387Z,1013.45
2023-04-20T01:46:10.393Z,1013.39
2023-04-20T01:47:10.367Z,1013.39
2023-04-20T01:48:10.380Z,1013.40
2023-04-20T01:49:10.349Z,1013.39
2023-04-20T01:50:10.332Z,1013.37
2023-04-20T01:51:10.323Z,1013.30
2023-04-20T01:52:10.315Z,1013.35
2023-04-20T01:53:10.323Z,1013.39
2023-04-20T01:54:10.288Z,1013.36
2023-04-20T01:55:10.284Z,1013.39
2023-04-20T01:56:10.271Z,1013.40
2023-04-20T01:57:10.267Z,1013.38
2023-04-20T01:58:10.256Z,1013.32
2023-04-20T01:59:10.260Z,1013.29
2023-04-20T02:00:10.231Z,1013.24
2023-04-20T02:01:10.244Z,1013.28
2023-04-20T02:02:10.262Z,1013.32
2023-04-20T02:03:10.259Z,1013.28
2023-04-20T02:04:10.210Z,1013.25
2023-04-20T02:05:10.166Z,1013.31
2023-04-20T02:06:10.165Z,1013.22
2023-04-20T02:07:10.150Z,1013.26
2023-04-20T02:08:10.139Z,1013.26
2023-04-20T02:09:10.183Z,1013.21
2023-04-20T02:10:10.123Z,1013.26
2023-04-20T02:11:10.106Z,1013.21
2023-04-20T02:12:10.093Z,1013.17
2023-04-20T02:13:10.096Z,1013.15
2023-04-20T02:14:10.086Z,1013.17
2023-04-20T02:15:10.051Z,1013.15
2023-04-20T02:16:10.048Z,1013.14
2023-04-20T02:17:10.116Z,1013.16
2023-04-20T02:18:10.067Z,1013.15
2023-04-20T02:19:10.038Z,1013.17
2023-04-20T02:20:09.994Z,1013.11
2023-04-20T02:21:09.990Z,1013.17
2023-04-20T02:22:09.974Z,1013.14
2023-04-20T02:23:09.982Z,1013.08
2023-04-20T02:24:09.957Z,1013.12
2023-04-20T02:25:09.983Z,1013.09
2023-04-20T02:26:09.950Z,1013.11
2023-04-20T02:27:09.928Z,1013.04
2023-04-20T02:28:09.904Z,1013.06
2023-04-20T02:29:09.920Z,1013.10
2023-04-20T02:30:09.916Z,1013.16
2023-04-20T02:31:09.899Z,1013.16
2023-04-20T02:32:09.850Z,1013.20
2023-04-20T02:33:09.844Z,1013.19
2023-04-20T02:34:09.830Z,1013.16
2023-04-20T02:35:09.847Z,1013.09
2023-04-20T02:36:09.818Z,1013.11
2023-04-20T02:37:09.820Z,1013.08
2023-04-20T02:38:09.786Z,1013.08
2023-04-20T02:39:09.779Z,1012.99
2023-04-20T02:40:09.772Z,1013.04
2023-04-20T02:41:09.762Z,1012.98
2023-04-20T02:42:09.768Z,1012.95
2023-04-20T02:43:09.745Z,1013.00
2023-04-20T02:44:09.730Z,1013.00
2023-04-20T02:45:09.728Z,1013.00
2023-04-20T02:46:09.752Z,1013.06
2023-04-20T02:47:09.693Z,1013.14
2023-04-20T02:48:09.749Z,1013.13
2023-04-20T02:49:09.716Z,1013.10
2023-04-20T02:50:09.664Z,1013.05
2023-04-20T02:51:09.654Z,1013.02
2023-04-20T02:52:09.640Z,1013.05
2023-04-20T02:53:09.638Z,1013.05
2023-04-20T02:54:09.658Z,1013.02
2023-04-20T02:55:09.618Z,1013.00
2023-04-20T02:56:09.606Z,1013.00
2023-04-20T02:57:09.594Z,1013.01
2023-04-20T02:58:09.580Z,1012.96
2023-04-20T02:59:09.583Z,1012.95
2023-04-20T03:00:09.591Z,1013.03
2023-04-20T03:01:09.546Z,1012.96
2023-04-20T03:02:09.569Z,1012.96
2023-04-20T03:03:09.636Z,1013.01
2023-04-20T03:04:09.623Z,1012.95
2023-04-20T03:05:09.552Z,1012.98
2023-04-20T03:06:09.493Z,1012.94
2023-04-20T03:07:09.513Z,1012.99
2023-04-20T03:08:09.472Z,1012.98
2023-04-20T03:09:09.456Z,1013.02
2023-04-20T03:10:09.477Z,1013.02
2023-04-20T03:11:09.437Z,1013.02
2023-04-20T03:12:09.423Z,1012.90
2023-04-20T03:13:09.411Z,1012.97
2023-04-20T03:14:09.401Z,1012.90
2023-04-20T03:15:09.406Z,1012.94
2023-04-20T03:16:09.421Z,1012.93
2023-04-20T03:17:09.380Z,1012.88
2023-04-20T03:18:09.382Z,1012.92
2023-04-20T03:19:09.347Z,1012.87
2023-04-20T03:20:09.344Z,1012.89
2023-04-20T03:21:09.325Z,1012.89
2023-04-20T03:22:09.324Z,1012.85
2023-04-20T03:23:09.323Z,1012.91
2023-04-20T03:24:09.286Z,1012.89
2023-04-20T03:25:09.283Z,1012.89
2023-04-20T03:26:09.261Z,1012.87
2023-04-20T03:27:09.261Z,1012.96
2023-04-20T03:28:09.257Z,1012.92
2023-04-20T03:29:09.233Z,1012.89
2023-04-20T03:30:09.224Z,1012.88
2023-04-20T03:31:09.207Z,1012.87
2023-04-20T03:32:09.289Z,1012.82
2023-04-20T03:33:09.309Z,1012.85
2023-04-20T03:34:09.183Z,1012.79
2023-04-20T03:35:09.431Z,1012.84
2023-04-20T03:36:09.157Z,1012.86
2023-04-20T03:37:09.143Z,1012.80
2023-04-20T03:38:09.150Z,1012.82
2023-04-20T03:39:09.121Z,1012.79
2023-04-20T03:40:09.108Z,1012.86
2023-04-20T03:41:09.103Z,1012.83
2023-04-20T03:42:09.099Z,1012.83
2023-04-20T03:43:09.098Z,1012.84
2023-04-20T03:44:09.078Z,1012.86
2023-04-20T03:45:09.074Z,1012.83
2023-04-20T03:46:09.057Z,1012.82
2023-04-20T03:47:09.036Z,1012.80
2023-04-20T03:48:09.025Z,1012.75
2023-04-20T03:49:09.030Z,1012.77
2023-04-20T03:50:08.997Z,1012.75
2023-04-20T03:51:09.017Z,1012.76
2023-04-20T03:52:08.978Z,1012.74
2023-04-20T03:53:08.969Z,1012.72
2023-04-20T03:54:08.956Z,1012.71
2023-04-20T03:55:08.936Z,1012.76
2023-04-20T03:56:08.945Z,1012.71
2023-04-20T03:57:08.930Z,1012.75
2023-04-20T03:58:08.909Z,1012.71
2023-04-20T03:59:08.894Z,1012.79
2023-04-20T04:00:08.888Z,1012.75
2023-04-20T04:01:08.883Z,1012.75
2023-04-20T04:02:09.017Z,1012.79
2023-04-20T04:03:09.057Z,1012.74
2023-04-20T04:04:09.131Z,1012.76
2023-04-20T04:05:08.854Z,1012.76
2023-04-20T04:06:08.837Z,1012.72
2023-04-20T04:07:08.817Z,1012.74
2023-04-20T04:08:08.828Z,1012.74
2023-04-20T04:09:08.791Z,1012.79
2023-04-20T04:10:08.784Z,1012.76
2023-04-20T04:11:08.785Z,1012.74
2023-04-20T04:12:08.761Z,1012.74
2023-04-20T04:13:08.742Z,1012.75
2023-04-20T04:14:08.772Z,1012.72
2023-04-20T04:15:08.730Z,1012.70
2023-04-20T04:16:08.719Z,1012.71
2023-04-20T04:17:08.760Z,1012.78
2023-04-20T04:18:08.726Z,1012.68
2023-04-20T04:19:08.701Z,1012.69
2023-04-20T04:20:08.682Z,1012.75
2023-04-20T04:21:08.676Z,1012.70
2023-04-20T04:22:08.664Z,1012.70
2023-04-20T04:23:08.644Z,1012.72
2023-04-20T04:24:08.636Z,1012.79
2023-04-20T04:25:08.641Z,1012.79
2023-04-20T04:26:08.601Z,1012.77
2023-04-20T04:27:08.607Z,1012.76
2023-04-20T04:28:08.594Z,1012.78
2023-04-20T04:29:08.577Z,1012.69
2023-04-20T04:30:08.607Z,1012.71
2023-04-20T04:31:08.581Z,1012.64
2023-04-20T04:32:08.547Z,1012.65
2023-04-20T04:33:08.541Z,1012.63
2023-04-20T04:34:08.527Z,1012.68
2023-04-20T04:35:08.519Z,1012.70
2023-04-20T04:36:08.522Z,1012.74
2023-04-20T04:37:08.496Z,1012.76
2023-04-20T04:38:08.484Z,1012.76
2023-04-20T04:39:08.465Z,1012.70
2023-04-20T04:40:08.467Z,1012.71
2023-04-20T04:41:08.472Z,1012.72
2023-04-20T04:42:08.439Z,1012.69
2023-04-20T04:43:08.426Z,1012.69
2023-04-20T04:44:08.416Z,1012.70
2023-04-20T04:45:08.408Z,1012.71
2023-04-20T04:46:08.487Z,1012.71
2023-04-20T04:47:08.381Z,1012.73
2023-04-20T04:48:09.101Z,1012.79
2023-04-20T04:49:08.361Z,1012.85
2023-04-20T04:50:08.357Z,1012.84
2023-04-20T04:51:08.368Z,1012.84
2023-04-20T04:52:08.351Z,1012.83
2023-04-20T04:53:08.327Z,1012.90
2023-04-20T04:54:08.314Z,1012.86
2023-04-20T04:55:08.474Z,1012.89
2023-04-20T04:56:08.293Z,1012.85
2023-04-20T04:57:08.295Z,1012.80
2023-04-20T04:58:08.266Z,1012.77
2023-04-20T04:59:08.275Z,1012.76
2023-04-20T05:00:08.258Z,1012.77
2023-04-20T05:01:08.236Z,1012.78
2023-04-20T05:02:08.316Z,1012.77
2023-04-20T05:03:08.277Z,1012.72
2023-04-20T05:04:08.439Z,1012.70
2023-04-20T05:05:09.732Z,1012.70
2023-04-20T05:06:08.176Z,1012.71
2023-04-20T05:07:08.162Z,1012.70
2023-04-20T05:08:08.157Z,1012.75
2023-04-20T05:09:08.166Z,1012.69
2023-04-20T05:10:08.161Z,1012.78
2023-04-20T05:11:08.129Z,1012.76
2023-04-20T05:12:08.133Z,1012.81
2023-04-20T05:13:08.097Z,1012.75
2023-04-20T05:14:08.092Z,1012.72
2023-04-20T05:15:08.098Z,1012.73
2023-04-20T05:16:08.080Z,1012.71
2023-04-20T05:17:08.068Z,1012.71
2023-04-20T05:18:08.098Z,1012.74
2023-04-20T05:19:08.033Z,1012.76
2023-04-20T05:20:08.045Z,1012.72
2023-04-20T05:21:08.025Z,1012.76
2023-04-20T05:22:07.998Z,1012.76
2023-04-20T05:23:07.994Z,1012.80
2023-04-20T05:24:07.983Z,1012.78
2023-04-20T05:25:07.997Z,1012.79
2023-04-20T05:26:07.968Z,1012.79
2023-04-20T05:27:07.943Z,1012.83
2023-04-20T05:28:07.932Z,1012.84
2023-04-20T05:29:07.919Z,1012.83
2023-04-20T05:30:19.442Z,1012.83
2023-04-20T05:31:07.921Z,1012.83
2023-04-20T05:32:07.978Z,1012.83
2023-04-20T05:33:07.893Z,1012.86
2023-04-20T05:34:07.877Z,1012.90
2023-04-20T05:35:07.859Z,1012.89
2023-04-20T05:36:07.872Z,1012.89
2023-04-20T05:37:07.850Z,1012.96
2023-04-20T05:38:07.838Z,1012.90
2023-04-20T05:39:07.819Z,1012.92
2023-04-20T05:40:07.827Z,1012.96
2023-04-20T05:41:07.802Z,1012.93
2023-04-20T05:42:07.786Z,1012.99
2023-04-20T05:43:07.768Z,1013.03
2023-04-20T05:44:07.762Z,1013.00
2023-04-20T05:45:07.755Z,1013.00
2023-04-20T05:46:07.812Z,1012.94
2023-04-20T05:47:07.725Z,1012.92
2023-04-20T05:48:07.810Z,1012.97
2023-04-20T05:49:07.714Z,1012.93
2023-04-20T05:50:07.736Z,1012.92
2023-04-20T05:51:07.691Z,1012.95
2023-04-20T05:52:07.680Z,1012.94
2023-04-20T05:53:07.662Z,1012.92
2023-04-20T05:54:07.654Z,1012.95
2023-04-20T05:55:07.667Z,1012.92
2023-04-20T05:56:07.637Z,1012.93
2023-04-20T05:57:07.631Z,1012.87
2023-04-20T05:58:07.644Z,1012.90
2023-04-20T05:59:07.657Z,1012.91
2023-04-20T06:00:07.584Z,1012.93
2023-04-20T06:01:07.571Z,1012.96
2023-04-20T06:02:07.614Z,1012.91
2023-04-20T06:03:07.831Z,1012.96
2023-04-20T06:04:07.716Z,1012.97
2023-04-20T06:05:07.636Z,1012.91
2023-04-20T06:06:07.523Z,1012.93
2023-04-20T06:07:07.565Z,1012.92
2023-04-20T06:08:07.520Z,1012.92
2023-04-20T06:09:07.497Z,1012.91
2023-04-20T06:10:07.479Z,1012.90
2023-04-20T06:11:07.485Z,1012.93
2023-04-20T06:12:07.461Z,1012.90
2023-04-20T06:13:07.444Z,1012.88
2023-04-20T06:14:07.429Z,1012.94
2023-04-20T06:15:07.423Z,1012.96
2023-04-20T06:16:07.466Z,1012.92
2023-04-20T06:17:07.418Z,1012.96
2023-04-20T06:18:07.434Z,1012.95
2023-04-20T06:19:07.403Z,1012.95
2023-04-20T06:20:07.378Z,1012.99
2023-04-20T06:21:07.361Z,1012.91
2023-04-20T06:22:07.349Z,1012.94
2023-04-20T06:23:07.355Z,1012.88
2023-04-20T06:24:07.336Z,1012.91
2023-04-20T06:25:07.303Z,1012.91
2023-04-20T06:26:07.294Z,1012.99
2023-04-20T06:27:07.288Z,1012.90
2023-04-20T06:28:07.324Z,1012.88
2023-04-20T06:29:07.289Z,1012.88
2023-04-20T06:30:07.267Z,1012.86
2023-04-20T06:31:07.279Z,1012.83
2023-04-20T06:32:07.231Z,1012.87
2023-04-20T06:33:07.416Z,1012.87
2023-04-20T06:34:07.232Z,1012.87
2023-04-20T06:35:07.265Z,1012.83
2023-04-20T06:36:07.193Z,1012.87
2023-04-20T06:37:07.167Z,1012.89
2023-04-20T06:38:07.172Z,1012.86
2023-04-20T06:39:07.188Z,1012.88
2023-04-20T06:40:07.139Z,1012.87
2023-04-20T06:41:07.130Z,1012.94
2023-04-20T06:42:07.114Z,1012.95
2023-04-20T06:43:07.138Z,1012.89
2023-04-20T06:44:07.091Z,1012.95
2023-04-20T06:45:07.123Z,1012.97
2023-04-20T06:46:07.104Z,1012.93
2023-04-20T06:47:07.142Z,1012.99
2023-04-20T06:48:14.124Z,1013.01
2023-04-20T06:49:07.041Z,1012.93
2023-04-20T06:50:07.023Z,1013.04
2023-04-20T06:51:07.021Z,1012.98
2023-04-20T06:52:07.024Z,1012.99
2023-04-20T06:53:06.992Z,1012.97
2023-04-20T06:54:06.978Z,1012.91
2023-04-20T06:55:06.972Z,1012.97
2023-04-20T06:56:06.953Z,1013.07
2023-04-20T06:57:06.995Z,1013.10
2023-04-20T06:58:06.936Z,1012.96
2023-04-20T06:59:06.928Z,1012.99
2023-04-20T07:00:14.289Z,1012.94
2023-04-20T07:01:06.918Z,1012.95
2023-04-20T07:02:07.016Z,1012.93
2023-04-20T07:03:06.996Z,1012.97
2023-04-20T07:04:07.117Z,1012.87
2023-04-20T07:05:06.860Z,1012.84
2023-04-20T07:06:07.872Z,1012.89
2023-04-20T07:07:06.855Z,1012.90
2023-04-20T07:08:06.856Z,1012.90
2023-04-20T07:09:06.845Z,1012.91
2023-04-20T07:10:06.799Z,1012.88
2023-04-20T07:11:06.803Z,1012.87
2023-04-20T07:12:06.806Z,1012.85
2023-04-20T07:13:06.784Z,1012.75
2023-04-20T07:14:06.759Z,1012.72
2023-04-20T07:15:06.792Z,1012.76
2023-04-20T07:16:06.773Z,1012.78
2023-04-20T07:17:06.752Z,1012.81
2023-04-20T07:18:06.783Z,1012.88
2023-04-20T07:19:06.715Z,1012.84
2023-04-20T07:20:06.693Z,1012.86
2023-04-20T07:21:06.719Z,1012.88
2023-04-20T07:22:06.677Z,1012.86
2023-04-20T07:23:06.692Z,1012.86
2023-04-20T07:24:06.651Z,1012.88
2023-04-20T07:25:06.676Z,1012.89
2023-04-20T07:26:06.620Z,1012.79
2023-04-20T07:27:06.612Z,1012.81
2023-04-20T07:28:06.617Z,1012.81
2023-04-20T07:29:06.595Z,1012.87
2023-04-20T07:30:06.589Z,1012.82
2023-04-20T07:31:06.608Z,1012.83
2023-04-20T07:32:06.598Z,1012.84
2023-04-20T07:33:06.625Z,1012.78
2023-04-20T07:34:06.544Z,1012.80
2023-04-20T07:35:06.539Z,1012.75
2023-04-20T07:36:06.527Z,1012.75
2023-04-20T07:37:06.540Z,1012.80
2023-04-20T07:38:06.512Z,1012.83
2023-04-20T07:39:06.475Z,1012.82
2023-04-20T07:40:06.489Z,1012.89
2023-04-20T07:41:06.471Z,1012.87
2023-04-20T07:42:06.448Z,1012.79
2023-04-20T07:43:06.474Z,1012.77
2023-04-20T07:44:06.425Z,1012.77
2023-04-20T07:45:06.432Z,1012.78
2023-04-20T07:46:06.424Z,1012.82
2023-04-20T07:47:06.399Z,1012.82
2023-04-20T07:48:06.407Z,1012.81
2023-04-20T07:49:06.400Z,1012.80
2023-04-20T07:50:06.413Z,1012.82
2023-04-20T07:51:06.349Z,1012.82
2023-04-20T07:52:15.702Z,1012.79
2023-04-20T07:53:06.366Z,1012.85
2023-04-20T07:54:06.320Z,1012.89
2023-04-20T07:55:06.336Z,1012.88
2023-04-20T07:56:27.305Z,1012.89
2023-04-20T07:57:06.286Z,1012.83
2023-04-20T07:58:06.277Z,1012.76
2023-04-20T07:59:06.261Z,1012.79
2023-04-20T08:00:06.269Z,1012.74
2023-04-20T08:01:06.239Z,1012.68
2023-04-20T08:02:06.275Z,1012.65
2023-04-20T08:03:06.398Z,1012.66
2023-04-20T08:04:06.540Z,1012.70
2023-04-20T08:05:06.479Z,1012.69
2023-04-20T08:06:06.404Z,1012.69
2023-04-20T08:07:06.166Z,1012.69
2023-04-20T08:08:06.177Z,1012.72
2023-04-20T08:09:06.156Z,1012.67
2023-04-20T08:10:06.175Z,1012.69
2023-04-20T08:11:06.122Z,1012.68
2023-04-20T08:12:06.129Z,1012.68
2023-04-20T08:13:06.126Z,1012.64
2023-04-20T08:14:06.099Z,1012.66
2023-04-20T08:15:06.085Z,1012.64
2023-04-20T08:16:06.194Z,1012.60
2023-04-20T08:17:06.057Z,1012.60
2023-04-20T08:18:06.136Z,1012.62
2023-04-20T08:19:06.068Z,1012.64
2023-04-20T08:20:06.069Z,1012.60
2023-04-20T08:21:07.291Z,1012.65
2023-04-20T08:22:06.075Z,1012.58
2023-04-20T08:23:06.052Z,1012.61
2023-04-20T08:24:05.995Z,1012.65
2023-04-20T08:25:06.022Z,1012.56
2023-04-20T08:26:05.961Z,1012.53
2023-04-20T08:27:05.960Z,1012.54
2023-04-20T08:28:08.654Z,1012.49
2023-04-20T08:29:05.943Z,1012.52
2023-04-20T08:30:05.940Z,1012.59
2023-04-20T08:31:05.977Z,1012.59
2023-04-20T08:32:05.901Z,1012.53
2023-04-20T08:33:05.941Z,1012.51
2023-04-20T08:34:05.899Z,1012.55
2023-04-20T08:35:05.867Z,1012.58
2023-04-20T08:36:05.875Z,1012.58
2023-04-20T08:37:05.843Z,1012.57
2023-04-20T08:38:05.889Z,1012.53
2023-04-20T08:39:05.820Z,1012.62
2023-04-20T08:40:05.830Z,1012.58
2023-04-20T08:41:05.796Z,1012.54
2023-04-20T08:42:05.799Z,1012.53
2023-04-20T08:43:05.801Z,1012.54
2023-04-20T08:44:05.800Z,1012.59
2023-04-20T08:45:05.789Z,1012.62
2023-04-20T08:46:05.797Z,1012.58
2023-04-20T08:47:05.810Z,1012.56
2023-04-20T08:48:05.793Z,1012.57
2023-04-20T08:49:05.714Z,1012.57
2023-04-20T08:50:05.726Z,1012.50
2023-04-20T08:51:05.688Z,1012.50
2023-04-20T08:52:05.693Z,1012.47
2023-04-20T08:53:05.682Z,1012.37
2023-04-20T08:54:05.656Z,1012.33
2023-04-20T08:55:05.693Z,1012.37
2023-04-20T08:56:05.784Z,1012.48
2023-04-20T08:57:05.622Z,1012.41
2023-04-20T08:58:05.613Z,1012.43
2023-04-20T08:59:05.763Z,1012.43
2023-04-20T09:00:05.593Z,1012.42
2023-04-20T09:01:05.582Z,1012.43
2023-04-20T09:02:05.722Z,1012.37
2023-04-20T09:03:05.671Z,1012.40
2023-04-20T09:04:05.687Z,1012.42
2023-04-20T09:05:05.568Z,1012.47
2023-04-20T09:06:05.549Z,1012.42
2023-04-20T09:07:05.537Z,1012.40
2023-04-20T09:08:05.498Z,1012.37
2023-04-20T09:09:05.496Z,1012.45
2023-04-20T09:10:05.486Z,1012.41
2023-04-20T09:11:05.468Z,1012.34
2023-04-20T09:12:05.479Z,1012.44
2023-04-20T09:13:05.450Z,1012.42
2023-04-20T09:14:05.442Z,1012.39
2023-04-20T09:15:05.426Z,1012.40
2023-04-20T09:16:05.477Z,1012.45
2023-04-20T09:17:05.417Z,1012.46
2023-04-20T09:18:05.482Z,1012.34
2023-04-20T09:19:06.230Z,1012.26
2023-04-20T09:20:05.395Z,1012.39
2023-04-20T09:21:05.373Z,1012.35
2023-04-20T09:22:05.371Z,1012.35
2023-04-20T09:23:05.359Z,1012.33
2023-04-20T09:24:05.345Z,1012.41
2023-04-20T09:25:05.323Z,1012.48
2023-04-20T09:26:05.320Z,1012.36
2023-04-20T09:27:05.294Z,1012.37
2023-04-20T09:28:05.314Z,1012.45
2023-04-20T09:29:05.290Z,1012.41
2023-04-20T09:30:05.281Z,1012.38
2023-04-20T09:31:05.262Z,1012.36
2023-04-20T09:32:05.280Z,1012.36
2023-04-20T09:33:05.387Z,1012.38
2023-04-20T09:34:05.243Z,1012.40
2023-04-20T09:35:05.775Z,1012.41
2023-04-20T09:36:05.201Z,1012.40
2023-04-20T09:37:07.258Z,1012.42
2023-04-20T09:38:05.180Z,1012.35
2023-04-20T09:39:05.186Z,1012.31
2023-04-20T09:40:05.154Z,1012.41
2023-04-20T09:41:05.147Z,1012.43
2023-04-20T09:42:05.136Z,1012.42
2023-04-20T09:43:05.142Z,1012.33
2023-04-20T09:44:05.113Z,1012.36
2023-04-20T09:45:05.104Z,1012.43
2023-04-20T09:46:05.128Z,1012.33
2023-04-20T09:47:05.081Z,1012.40
2023-04-20T09:48:05.148Z,1012.37
2023-04-20T09:49:05.094Z,1012.36
2023-04-20T09:50:19.364Z,1012.42
2023-04-20T09:51:05.026Z,1012.39
2023-04-20T09:52:05.030Z,1012.36
2023-04-20T09:53:05.020Z,1012.30
2023-04-20T09:54:04.995Z,1012.36
2023-04-20T09:55:05.026Z,1012.31
2023-04-20T09:56:05.023Z,1012.29
2023-04-20T09:57:04.962Z,1012.29
2023-04-20T09:58:04.972Z,1012.31
2023-04-20T09:59:04.951Z,1012.36
2023-04-20T10:00:04.951Z,1012.30
2023-04-20T10:01:04.996Z,1012.37
2023-04-20T10:02:04.976Z,1012.32
2023-04-20T10:03:05.011Z,1012.43
2023-04-20T10:04:05.264Z,1012.36
2023-04-20T10:05:04.888Z,1012.38
2023-04-20T10:06:04.897Z,1012.33
2023-04-20T10:07:04.857Z,1012.36
2023-04-20T10:08:04.841Z,1012.37
2023-04-20T10:09:04.832Z,1012.34
2023-04-20T10:10:04.818Z,1012.26
2023-04-20T10:11:04.885Z,1012.25
2023-04-20T10:12:04.816Z,1012.26
2023-04-20T10:13:04.801Z,1012.28
2023-04-20T10:14:04.783Z,1012.31
2023-04-20T10:15:04.770Z,1012.32
2023-04-20T10:16:04.757Z,1012.36
2023-04-20T10:17:04.982Z,1012.31
2023-04-20T10:18:04.860Z,1012.27
2023-04-20T10:19:05.738Z,1012.27
2023-04-20T10:20:04.718Z,1012.29
2023-04-20T10:21:04.710Z,1012.25
2023-04-20T10:22:04.719Z,1012.34
2023-04-20T10:23:04.674Z,1012.28
2023-04-20T10:24:04.679Z,1012.29
2023-04-20T10:25:04.664Z,1012.35
2023-04-20T10:26:04.658Z,1012.35
2023-04-20T10:27:04.645Z,1012.33
2023-04-20T10:28:04.657Z,1012.26
2023-04-20T10:29:04.626Z,1012.23
2023-04-20T10:30:04.611Z,1012.29
2023-04-20T10:31:04.740Z,1012.26
2023-04-20T10:32:04.607Z,1012.28
2023-04-20T10:33:04.643Z,1012.22
2023-04-20T10:34:04.569Z,1012.24
2023-04-20T10:35:04.544Z,1012.30
2023-04-20T10:36:04.531Z,1012.24
2023-04-20T10:37:04.531Z,1012.19
2023-04-20T10:38:04.532Z,1012.21
2023-04-20T10:39:04.512Z,1012.17
2023-04-20T10:40:07.435Z,1012.18
2023-04-20T10:41:04.496Z,1012.17
2023-04-20T10:42:04.514Z,1012.15
2023-04-20T10:43:04.472Z,1012.15
2023-04-20T10:44:04.448Z,1012.17
2023-04-20T10:45:04.446Z,1012.15
2023-04-20T10:46:04.439Z,1012.12
2023-04-20T10:47:04.478Z,1012.08
2023-04-20T10:48:04.432Z,1012.07
2023-04-20T10:49:04.412Z,1012.08
2023-04-20T10:50:04.395Z,1012.12
2023-04-20T10:51:04.377Z,1012.09
2023-04-20T10:52:04.372Z,1012.04
2023-04-20T10:53:04.372Z,1012.12
2023-04-20T10:54:04.359Z,1012.07
2023-04-20T10:55:04.334Z,1012.07
2023-04-20T10:56:04.346Z,1012.10
2023-04-20T10:57:04.377Z,1012.06
2023-04-20T10:58:04.294Z,1012.01
2023-04-20T10:59:04.284Z,1012.09
2023-04-20T11:00:04.308Z,1012.06
2023-04-20T11:01:04.259Z,1012.05
2023-04-20T11:02:04.310Z,1012.13
2023-04-20T11:03:04.407Z,1012.07
2023-04-20T11:04:04.249Z,1012.07
2023-04-20T11:05:04.273Z,1012.07
2023-04-20T11:06:04.393Z,1012.04
2023-04-20T11:07:04.234Z,1012.13
2023-04-20T11:08:04.235Z,1012.09
2023-04-20T11:09:04.207Z,1012.09
2023-04-20T11:10:04.185Z,1012.09
2023-04-20T11:11:04.190Z,1012.09
2023-04-20T11:12:04.200Z,1012.14
2023-04-20T11:13:04.134Z,1012.08
2023-04-20T11:14:04.120Z,1012.10
2023-04-20T11:15:04.117Z,1012.07
2023-04-20T11:16:04.157Z,1012.10
2023-04-20T11:17:04.110Z,1012.11
2023-04-20T11:18:04.126Z,1012.12
2023-04-20T11:19:04.073Z,1012.16
2023-04-20T11:20:04.073Z,1012.13
2023-04-20T11:21:04.088Z,1012.21
2023-04-20T11:22:04.041Z,1012.15
2023-04-20T11:23:04.035Z,1012.11
2023-04-20T11:24:04.004Z,1012.11
2023-04-20T11:25:04.006Z,1012.16
2023-04-20T11:26:04.012Z,1011.93
2023-04-20T11:27:04.007Z,1011.95
2023-04-20T11:28:03.970Z,1012.08
2023-04-20T11:29:03.959Z,1012.09
2023-04-20T11:30:03.949Z,1011.95
2023-04-20T11:31:04.018Z,1011.84
2023-04-20T11:32:04.184Z,1011.83
2023-04-20T11:33:04.104Z,1011.79
2023-04-20T11:34:05.939Z,1011.82
2023-04-20T11:35:07.110Z,1011.81
2023-04-20T11:36:03.922Z,1011.83
2023-04-20T11:37:03.865Z,1011.85
2023-04-20T11:38:03.856Z,1011.88
2023-04-20T11:39:03.846Z,1011.85
2023-04-20T11:40:03.840Z,1011.86
2023-04-20T11:41:03.862Z,1011.92
2023-04-20T11:42:03.815Z,1011.92
2023-04-20T11:43:03.832Z,1011.93
2023-04-20T11:44:03.821Z,1011.93
2023-04-20T11:45:03.791Z,1011.93
2023-04-20T11:46:03.914Z,1011.94
2023-04-20T11:47:03.783Z,1011.93
2023-04-20T11:48:03.788Z,1011.96
2023-04-20T11:49:03.761Z,1012.00
2023-04-20T11:50:03.771Z,1011.96
2023-04-20T11:51:03.737Z,1011.80
2023-04-20T11:52:03.729Z,1011.77
2023-04-20T11:53:03.698Z,1011.76
2023-04-20T11:54:03.709Z,1011.74
2023-04-20T11:55:03.712Z,1011.81
2023-04-20T11:56:03.682Z,1011.83
2023-04-20T11:57:03.652Z,1011.83
2023-04-20T11:58:03.644Z,1011.78
2023-04-20T11:59:03.625Z,1011.75
2023-04-20T12:00:03.647Z,1011.78
2023-04-20T12:01:03.608Z,1011.75
2023-04-20T12:02:04.569Z,1011.73
2023-04-20T12:03:03.693Z,1011.81
2023-04-20T12:04:03.860Z,1011.77
2023-04-20T12:05:03.677Z,1011.77